Time;durP1;ratioP1;P1;durP2;ratioP2;P2;SDS_P1;SDS_P2;PMS_P1;PMS_P2;Temp;Humidity;BMP_temperature;BMP_pressure;BME280_temperature;BME280_humidity;BME280_pressure;Samples;Min_cycle;Max_cycle;Signal;HPM_P1;HPM_P2
2021/12/18 12:31:09;;;;;;;22.83;7.20;;;8.60;99.90;;;;;;3027308;23;20230;-72
2021/12/18 12:33:37;;;;;;;22.63;6.33;;;8.50;99.90;;;;;;4886808;29;20249;-71
2021/12/18 12:36:11;;;;;;;22.30;6.80;;;8.60;99.90;;;;;;4896550;29;20292;-77
2021/12/18 12:38:41;;;;;;;24.93;7.03;;;8.70;99.90;;;;;;4894028;29;20230;-76
2021/12/18 12:41:30;;;;;;;21.90;6.63;;;8.80;99.90;;;;;;4892089;29;20210;-74
2021/12/18 12:44:00;;;;;;;22.93;7.37;;;9.10;99.90;;;;;;4882835;29;20215;-74
2021/12/18 12:46:29;;;;;;;21.13;6.83;;;9.20;99.90;;;;;;4881468;29;20198;-73
2021/12/18 12:49:16;;;;;;;17.83;5.10;;;8.90;99.90;;;;;;4892766;29;20231;-74
2021/12/18 12:52:16;;;;;;;18.70;5.50;;;8.90;99.90;;;;;;4892321;29;20210;-73
2021/12/18 12:54:49;;;;;;;15.33;5.17;;;8.90;99.90;;;;;;4821624;29;20300;-73
2021/12/18 12:57:39;;;;;;;15.90;5.40;;;8.90;99.90;;;;;;4821745;29;20213;-73
2021/12/18 13:00:43;;;;;;;12.33;4.93;;;8.70;99.90;;;;;;4870695;29;20214;-71
2021/12/18 13:03:15;;;;;;;15.47;4.90;;;8.50;99.90;;;;;;4897376;29;20210;-72
2021/12/18 13:05:49;;;;;;;15.10;5.20;;;8.40;99.90;;;;;;4896621;29;20782;-73
2021/12/18 13:08:16;;;;;;;17.33;5.33;;;8.30;99.90;;;;;;4897473;29;20244;-74
2021/12/18 13:10:46;;;;;;;19.20;5.43;;;8.20;99.90;;;;;;4897472;29;20206;-74
2021/12/18 13:13:16;;;;;;;21.33;5.93;;;8.30;99.90;;;;;;4900699;29;20241;-83
2021/12/18 13:15:49;;;;;;;22.83;6.23;;;8.30;99.90;;;;;;4900909;29;20214;-72
2021/12/18 13:18:18;;;;;;;27.17;7.60;;;8.30;99.90;;;;;;4900898;29;20546;-73
2021/12/18 13:20:46;;;;;;;19.97;6.23;;;8.30;99.90;;;;;;4900879;29;20582;-73
2021/12/18 13:23:17;;;;;;;22.40;6.37;;;8.50;99.90;;;;;;4895128;29;20214;-74
2021/12/18 13:25:49;;;;;;;19.47;6.07;;;8.50;99.90;;;;;;4898450;29;20217;-73
2021/12/18 13:28:16;;;;;;;19.90;5.70;;;8.70;99.90;;;;;;4899975;29;20238;-74
2021/12/18 13:30:43;;;;;;;18.60;6.00;;;8.50;99.90;;;;;;4900336;29;20218;-75
2021/12/18 13:33:10;;;;;;;20.80;5.53;;;8.50;99.90;;;;;;4900430;29;20240;-75
2021/12/18 13:35:39;;;;;;;20.00;5.63;;;8.60;99.90;;;;;;4901221;29;20214;-74
2021/12/18 13:38:08;;;;;;;19.87;5.37;;;8.60;99.90;;;;;;4900548;29;20258;-74
2021/12/18 13:40:37;;;;;;;17.83;5.47;;;8.60;99.90;;;;;;4900588;29;20221;-73
2021/12/18 13:43:05;;;;;;;16.17;5.17;;;8.90;99.90;;;;;;4900519;29;20211;-74
2021/12/18 13:45:33;;;;;;;18.70;6.63;;;9.10;99.90;;;;;;4900382;29;20213;-73
2021/12/18 13:48:04;;;;;;;20.20;6.07;;;9.00;99.90;;;;;;4900285;29;20241;-75
2021/12/18 13:50:31;;;;;;;13.40;4.50;;;8.80;99.90;;;;;;4900534;29;20220;-74
2021/12/18 13:53:04;;;;;;;13.33;4.40;;;8.60;99.90;;;;;;4900042;29;20242;-73
2021/12/18 13:55:35;;;;;;;12.67;4.90;;;8.20;99.90;;;;;;4900309;29;20621;-73
2021/12/18 13:58:06;;;;;;;15.47;4.80;;;8.20;99.90;;;;;;4900307;29;20234;-75
2021/12/18 14:00:47;;;;;;;19.33;4.70;;;8.20;99.90;;;;;;4899969;29;20658;-74
2021/12/18 14:03:19;;;;;;;14.67;4.67;;;8.50;99.90;;;;;;4900517;29;20573;-74
2021/12/18 14:05:46;;;;;;;16.37;4.60;;;8.60;99.90;;;;;;4900603;29;20210;-73
2021/12/18 14:08:15;;;;;;;11.67;4.00;;;8.70;99.90;;;;;;4900108;29;20227;-74
2021/12/18 14:10:43;;;;;;;14.97;5.40;;;8.70;99.90;;;;;;4900233;29;20213;-73
2021/12/18 14:13:10;;;;;;;14.40;4.27;;;8.70;99.90;;;;;;4900181;29;20234;-74
2021/12/18 14:15:38;;;;;;;14.47;4.73;;;8.60;99.90;;;;;;4899860;29;20213;-75
2021/12/18 14:18:29;;;;;;;11.80;3.50;;;8.60;99.90;;;;;;4899164;29;20234;-73
2021/12/18 14:20:56;;;;;;;12.97;4.37;;;8.80;99.90;;;;;;4898895;29;20214;-74
2021/12/18 14:23:31;;;;;;;11.30;4.23;;;8.70;99.90;;;;;;4897652;29;20222;-74
2021/12/18 14:26:15;;;;;;;13.93;5.00;;;8.20;99.90;;;;;;4899200;29;20216;-74
2021/12/18 14:28:43;;;;;;;13.27;4.43;;;8.00;99.90;;;;;;4900044;29;20227;-74
2021/12/18 14:31:35;;;;;;;12.37;4.30;;;8.00;99.90;;;;;;4899495;29;20226;-74
2021/12/18 14:34:04;;;;;;;9.73;4.13;;;7.90;99.90;;;;;;4899453;29;20721;-74
2021/12/18 14:36:57;;;;;;;15.77;4.07;;;8.00;99.90;;;;;;4899402;29;20677;-74
2021/12/18 14:39:38;;;;;;;12.63;4.37;;;8.20;99.90;;;;;;4899594;29;20235;-74
2021/12/18 14:42:11;;;;;;;14.03;4.70;;;8.30;99.90;;;;;;4899320;29;20214;-74
2021/12/18 14:44:44;;;;;;;11.80;3.60;;;8.30;99.90;;;;;;4898587;29;20709;-74
2021/12/18 14:47:15;;;;;;;13.83;3.80;;;8.50;99.90;;;;;;4899076;29;20669;-73
2021/12/18 14:50:15;;;;;;;10.03;3.60;;;8.60;99.90;;;;;;4900017;29;20210;-73
2021/12/18 14:53:03;;;;;;;9.90;3.50;;;8.70;99.90;;;;;;4900119;29;20269;-74
2021/12/18 14:55:34;;;;;;;11.90;2.80;;;8.50;99.90;;;;;;4899929;29;20215;-74
2021/12/18 14:58:04;;;;;;;6.60;2.60;;;8.40;99.90;;;;;;4899696;29;20246;-74
2021/12/18 15:00:33;;;;;;;7.63;2.97;;;8.30;99.90;;;;;;4899676;29;20218;-74
2021/12/18 15:03:06;;;;;;;8.43;3.03;;;8.20;99.90;;;;;;4899971;29;20214;-74
2021/12/18 15:05:53;;;;;;;7.13;2.47;;;8.20;99.90;;;;;;4899832;29;20214;-73
2021/12/18 15:08:23;;;;;;;8.37;2.60;;;8.20;99.90;;;;;;4899620;29;20398;-74
2021/12/18 15:10:57;;;;;;;9.00;2.97;;;8.20;99.90;;;;;;4899780;29;20249;-74
2021/12/18 15:13:26;;;;;;;9.67;2.90;;;8.20;99.90;;;;;;4899474;29;20567;-73
2021/12/18 15:16:11;;;;;;;13.73;3.23;;;8.10;99.90;;;;;;4899494;29;20214;-74
2021/12/18 15:18:39;;;;;;;10.53;3.17;;;8.10;99.90;;;;;;4899497;29;20234;-74
2021/12/18 15:21:06;;;;;;;12.37;3.33;;;7.90;99.90;;;;;;4899514;29;20674;-74
2021/12/18 15:23:33;;;;;;;9.50;3.63;;;7.80;99.90;;;;;;4899270;29;20217;-74
2021/12/18 15:26:02;;;;;;;6.70;3.10;;;7.70;99.90;;;;;;4899247;29;20210;-74
2021/12/18 15:28:28;;;;;;;11.50;3.33;;;7.70;99.90;;;;;;4899245;29;20234;-74
2021/12/18 15:30:56;;;;;;;11.43;2.93;;;7.70;99.90;;;;;;4899335;29;20214;-74
2021/12/18 15:33:23;;;;;;;7.93;2.83;;;7.80;99.90;;;;;;4899168;29;20242;-75
2021/12/18 15:35:50;;;;;;;9.53;4.20;;;7.70;99.90;;;;;;4899070;29;20217;-72
2021/12/18 15:38:17;;;;;;;9.17;3.53;;;7.80;99.90;;;;;;4899014;29;20240;-72
2021/12/18 15:40:46;;;;;;;9.00;3.53;;;8.00;99.90;;;;;;4899060;29;20310;-72
2021/12/18 15:43:14;;;;;;;8.87;2.97;;;8.00;99.90;;;;;;4898702;29;20217;-73
2021/12/18 15:45:41;;;;;;;9.00;3.07;;;8.00;99.90;;;;;;4898847;29;20233;-73
2021/12/18 15:48:08;;;;;;;11.53;3.77;;;8.00;99.90;;;;;;4898339;29;20237;-72
2021/12/18 15:50:35;;;;;;;12.77;3.80;;;8.20;99.90;;;;;;4898589;29;20219;-72
2021/12/18 15:53:03;;;;;;;15.73;4.80;;;8.20;99.90;;;;;;4898763;29;20238;-73
2021/12/18 15:55:30;;;;;;;9.73;3.37;;;8.40;99.90;;;;;;4898708;29;20210;-72
2021/12/18 15:57:56;;;;;;;9.13;3.23;;;8.60;99.90;;;;;;4898596;29;20286;-72
2021/12/18 16:00:29;;;;;;;9.23;3.40;;;8.50;99.90;;;;;;4898554;29;20210;-73
2021/12/18 16:02:56;;;;;;;8.47;2.97;;;8.40;99.90;;;;;;4898411;29;20210;-72
2021/12/18 16:05:26;;;;;;;7.37;3.07;;;8.10;99.90;;;;;;4898355;29;20210;-72
2021/12/18 16:07:53;;;;;;;8.87;3.33;;;7.90;99.90;;;;;;4898632;29;20321;-72
2021/12/18 16:10:21;;;;;;;7.17;3.67;;;8.00;99.90;;;;;;4891581;29;20222;-72
2021/12/18 16:12:48;;;;;;;7.57;3.67;;;8.00;99.90;;;;;;4879471;29;20212;-72
2021/12/18 16:15:15;;;;;;;11.07;3.27;;;7.90;99.90;;;;;;4878286;29;20207;-73
2021/12/18 16:17:44;;;;;;;6.30;3.20;;;7.80;99.90;;;;;;4878299;29;20277;-72
2021/12/18 16:20:12;;;;;;;9.80;3.50;;;7.80;99.90;;;;;;4879453;29;20685;-71
2021/12/18 16:22:39;;;;;;;7.73;3.53;;;7.70;99.90;;;;;;4879255;29;20215;-72
2021/12/18 16:25:08;;;;;;;8.97;3.53;;;7.60;99.90;;;;;;4879033;29;20301;-73
2021/12/18 16:27:36;;;;;;;9.10;3.13;;;7.60;99.90;;;;;;4879371;29;20605;-73
2021/12/18 16:30:06;;;;;;;9.60;3.93;;;7.70;99.90;;;;;;4879114;29;20211;-72
2021/12/18 16:32:33;;;;;;;11.67;3.60;;;7.80;99.90;;;;;;4879236;29;20237;-74
2021/12/18 16:35:01;;;;;;;15.03;4.03;;;8.00;99.90;;;;;;4879441;29;20329;-73
2021/12/18 16:37:31;;;;;;;8.13;3.87;;;7.90;99.90;;;;;;4879617;29;20227;-73
2021/12/18 16:39:58;;;;;;;14.27;4.53;;;7.80;99.90;;;;;;4879556;29;20276;-72
2021/12/18 16:42:25;;;;;;;16.43;4.70;;;7.80;99.90;;;;;;4879297;29;20215;-73
2021/12/18 16:44:52;;;;;;;12.00;4.50;;;7.70;99.90;;;;;;4879171;29;20219;-73
2021/12/18 16:47:19;;;;;;;14.97;4.30;;;7.70;99.90;;;;;;4878690;29;20211;-73
2021/12/18 16:49:52;;;;;;;10.97;4.10;;;7.80;99.90;;;;;;4879369;29;20218;-72
2021/12/18 16:52:20;;;;;;;11.10;4.30;;;7.90;99.90;;;;;;4879316;29;20306;-72
2021/12/18 16:54:47;;;;;;;11.10;4.53;;;7.80;99.90;;;;;;4879205;29;20242;-73
2021/12/18 16:57:15;;;;;;;17.23;3.67;;;7.80;99.90;;;;;;4878999;29;20215;-73
2021/12/18 16:59:42;;;;;;;10.40;4.20;;;7.90;99.90;;;;;;4879292;29;20215;-73
2021/12/18 17:02:09;;;;;;;13.73;4.03;;;8.10;99.90;;;;;;4879429;29;20294;-73
2021/12/18 17:04:36;;;;;;;7.73;3.43;;;8.30;99.90;;;;;;4879330;29;20217;-73
2021/12/18 17:07:04;;;;;;;7.30;3.40;;;8.40;99.90;;;;;;4878710;29;20697;-72
2021/12/18 17:09:32;;;;;;;9.77;3.40;;;8.40;99.90;;;;;;4878945;29;20579;-73
2021/12/18 17:11:59;;;;;;;7.57;3.47;;;8.50;99.90;;;;;;4878866;29;20229;-73
2021/12/18 17:14:26;;;;;;;10.20;3.67;;;8.20;99.90;;;;;;4879002;29;20238;-72
2021/12/18 17:16:54;;;;;;;7.57;3.80;;;7.80;99.90;;;;;;4879269;29;20217;-72
2021/12/18 17:19:21;;;;;;;8.50;3.20;;;7.60;99.90;;;;;;4879177;29;20231;-73
2021/12/18 17:21:48;;;;;;;8.03;3.83;;;7.60;99.90;;;;;;4879289;29;20217;-73
2021/12/18 17:24:14;;;;;;;9.70;3.57;;;7.70;99.90;;;;;;4879028;29;20211;-72
2021/12/18 17:26:43;;;;;;;8.63;3.77;;;7.60;99.90;;;;;;4879001;29;20219;-75
2021/12/18 17:29:09;;;;;;;8.80;3.93;;;7.60;99.90;;;;;;4879124;29;20227;-71
2021/12/18 17:31:36;;;;;;;7.20;3.40;;;7.60;99.90;;;;;;4878779;29;20221;-72
2021/12/18 17:34:04;;;;;;;7.43;4.20;;;7.70;99.90;;;;;;4878558;29;20242;-72
2021/12/18 17:36:31;;;;;;;9.93;3.60;;;7.60;99.90;;;;;;4878682;29;20701;-72
2021/12/18 17:39:00;;;;;;;9.30;3.73;;;7.50;99.90;;;;;;4878336;29;20240;-72
2021/12/18 17:41:28;;;;;;;8.53;3.67;;;7.40;99.90;;;;;;4878739;29;20659;-73
2021/12/18 17:43:56;;;;;;;8.50;4.33;;;7.50;99.90;;;;;;4879123;29;20213;-72
2021/12/18 17:46:23;;;;;;;8.23;3.87;;;7.60;99.90;;;;;;4878934;29;20215;-71
2021/12/18 17:48:50;;;;;;;9.47;3.67;;;7.50;99.90;;;;;;4878733;29;20239;-73
2021/12/18 17:51:17;;;;;;;9.37;4.40;;;7.40;99.90;;;;;;4878847;29;20207;-73
2021/12/18 17:53:44;;;;;;;9.43;4.10;;;7.40;99.90;;;;;;4878380;29;20242;-72
2021/12/18 17:56:11;;;;;;;9.73;4.40;;;7.50;99.90;;;;;;4878933;29;20207;-73
2021/12/18 17:58:38;;;;;;;11.30;3.87;;;7.50;99.90;;;;;;4880699;29;20241;-73
2021/12/18 18:01:06;;;;;;;12.90;4.70;;;7.60;99.90;;;;;;4882214;29;20211;-72
2021/12/18 18:03:33;;;;;;;13.53;4.83;;;7.70;99.90;;;;;;4881762;29;20215;-73
2021/12/18 18:06:00;;;;;;;9.87;4.77;;;7.80;99.90;;;;;;4881576;29;20214;-73
2021/12/18 18:08:27;;;;;;;10.00;4.37;;;8.10;99.90;;;;;;4881906;29;20231;-73
2021/12/18 18:10:54;;;;;;;11.33;4.70;;;8.20;99.90;;;;;;4882265;29;20217;-72
2021/12/18 18:13:25;;;;;;;8.77;4.47;;;8.20;99.90;;;;;;4882062;29;20211;-72
2021/12/18 18:15:52;;;;;;;10.53;4.57;;;8.30;99.90;;;;;;4881888;29;20214;-72
2021/12/18 18:18:20;;;;;;;9.57;4.47;;;8.30;99.90;;;;;;4881298;29;20235;-73
2021/12/18 18:20:48;;;;;;;11.33;4.60;;;8.00;99.90;;;;;;4881547;29;20215;-73
2021/12/18 18:23:15;;;;;;;19.17;5.97;;;7.90;99.90;;;;;;4881436;29;20214;-73
2021/12/18 18:25:44;;;;;;;12.03;5.13;;;7.80;99.90;;;;;;4881882;29;20219;-71
2021/12/18 18:28:13;;;;;;;11.90;5.00;;;7.80;99.90;;;;;;4881816;29;20694;-73
2021/12/18 18:30:42;;;;;;;12.13;4.93;;;7.80;99.90;;;;;;4882070;29;20226;-72
2021/12/18 18:33:10;;;;;;;10.90;4.73;;;7.80;99.90;;;;;;4881249;29;20227;-72
2021/12/18 18:35:38;;;;;;;9.03;4.57;;;8.00;99.90;;;;;;4881500;29;20238;-72
2021/12/18 18:38:05;;;;;;;12.93;4.50;;;8.00;99.90;;;;;;4881270;29;20242;-72
2021/12/18 18:40:32;;;;;;;6.97;3.70;;;7.90;99.90;;;;;;4881531;29;20217;-72
2021/12/18 18:42:59;;;;;;;8.37;4.20;;;7.90;99.90;;;;;;4881327;29;20211;-72
2021/12/18 18:45:30;;;;;;;8.00;3.73;;;7.70;99.90;;;;;;4881246;29;20259;-72
2021/12/18 18:48:00;;;;;;;10.03;4.67;;;7.80;99.90;;;;;;4881381;29;20237;-72
2021/12/18 18:50:32;;;;;;;9.50;4.37;;;7.90;99.90;;;;;;4881545;29;20227;-72
2021/12/18 18:53:00;;;;;;;13.10;4.77;;;8.10;99.90;;;;;;4881048;29;20731;-72
2021/12/18 18:55:27;;;;;;;11.13;4.57;;;8.00;99.90;;;;;;4881196;29;20241;-72
2021/12/18 18:57:54;;;;;;;9.77;3.97;;;8.00;99.90;;;;;;4880972;29;20237;-72
2021/12/18 19:00:21;;;;;;;9.03;4.07;;;8.10;99.90;;;;;;4881008;29;20689;-72
2021/12/18 19:02:48;;;;;;;8.77;4.37;;;8.20;99.90;;;;;;4881059;29;20215;-72
2021/12/18 19:05:16;;;;;;;11.63;4.07;;;8.20;99.90;;;;;;4880871;29;20579;-72
2021/12/18 19:07:43;;;;;;;10.77;4.33;;;8.20;99.90;;;;;;4880783;29;20746;-73
2021/12/18 19:10:15;;;;;;;9.23;4.43;;;8.10;99.90;;;;;;4880082;29;20678;-73
2021/12/18 19:12:42;;;;;;;11.50;5.10;;;8.30;99.90;;;;;;4880956;29;20211;-72
2021/12/18 19:15:11;;;;;;;10.57;4.87;;;8.20;99.90;;;;;;4880887;29;20379;-72
2021/12/18 19:17:39;;;;;;;13.53;5.73;;;8.40;99.90;;;;;;4880792;29;20636;-73
2021/12/18 19:20:11;;;;;;;12.30;5.83;;;8.40;99.90;;;;;;4880829;29;20233;-72
2021/12/18 19:22:44;;;;;;;10.93;4.83;;;8.50;99.90;;;;;;4880374;29;20667;-73
2021/12/18 19:25:14;;;;;;;10.93;5.00;;;8.60;99.90;;;;;;4880655;29;20211;-72
2021/12/18 19:27:43;;;;;;;11.67;5.67;;;8.70;99.90;;;;;;4880556;29;20239;-72
2021/12/18 19:30:13;;;;;;;14.33;5.37;;;8.50;99.90;;;;;;4880840;29;20211;-73
2021/12/18 19:32:40;;;;;;;8.90;4.90;;;8.30;99.90;;;;;;4880316;29;20222;-72
2021/12/18 19:35:09;;;;;;;10.53;4.50;;;8.20;99.90;;;;;;4880699;29;20242;-73
2021/12/18 19:37:37;;;;;;;9.93;4.63;;;8.00;99.90;;;;;;4880361;29;20234;-73
2021/12/18 19:40:06;;;;;;;11.50;5.33;;;7.80;99.90;;;;;;4880281;29;20214;-73
2021/12/18 19:42:34;;;;;;;9.40;4.57;;;7.80;99.90;;;;;;4880551;29;20213;-73
2021/12/18 19:45:01;;;;;;;10.83;4.10;;;7.60;99.90;;;;;;4880416;29;20224;-73
2021/12/18 19:47:28;;;;;;;11.87;4.63;;;7.50;99.90;;;;;;4880090;29;20231;-72
2021/12/18 19:49:55;;;;;;;7.53;3.80;;;7.60;99.90;;;;;;4880000;29;20703;-72
2021/12/18 19:52:22;;;;;;;9.10;4.50;;;7.40;99.90;;;;;;4880345;29;20306;-73
2021/12/18 19:54:50;;;;;;;10.60;4.43;;;7.40;99.90;;;;;;4880120;29;20238;-74
2021/12/18 19:57:18;;;;;;;11.13;5.10;;;7.30;99.90;;;;;;4879716;29;20616;-73
2021/12/18 19:59:46;;;;;;;12.20;5.33;;;7.40;99.90;;;;;;4879897;29;20271;-73
2021/12/18 20:02:29;;;;;;;11.10;5.30;;;7.40;99.90;;;;;;4879662;29;20677;-75
2021/12/18 20:04:55;;;;;;;11.50;5.67;;;7.40;99.90;;;;;;4879843;29;20666;-72
2021/12/18 20:07:22;;;;;;;14.37;6.43;;;7.40;99.90;;;;;;4880133;29;20227;-75
2021/12/18 20:09:49;;;;;;;12.97;6.10;;;7.40;99.90;;;;;;4879987;29;20664;-72
2021/12/18 20:12:18;;;;;;;11.20;5.30;;;7.50;99.90;;;;;;4879945;29;20301;-74
2021/12/18 20:14:46;;;;;;;12.13;4.87;;;7.40;99.90;;;;;;4879720;29;20705;-75
2021/12/18 20:17:14;;;;;;;10.57;4.23;;;7.20;99.90;;;;;;4879722;29;20214;-72
2021/12/18 20:19:41;;;;;;;10.43;5.13;;;7.20;99.90;;;;;;4879831;29;20211;-72
2021/12/18 20:22:08;;;;;;;9.17;4.67;;;7.10;99.90;;;;;;4878921;29;20690;-73
2021/12/18 20:24:35;;;;;;;9.00;4.17;;;6.90;99.90;;;;;;4879707;29;20219;-73
2021/12/18 20:27:02;;;;;;;9.07;4.20;;;6.80;99.90;;;;;;4879686;29;20570;-73
2021/12/18 20:29:30;;;;;;;7.80;3.70;;;6.80;99.90;;;;;;4879733;29;20218;-73
2021/12/18 20:31:58;;;;;;;8.47;3.27;;;6.80;99.90;;;;;;4879397;29;20219;-73
2021/12/18 20:34:25;;;;;;;9.30;3.60;;;6.80;99.90;;;;;;4879617;29;20210;-73
2021/12/18 20:36:54;;;;;;;7.13;3.60;;;6.70;99.90;;;;;;4879626;29;20207;-74
2021/12/18 20:39:21;;;;;;;8.77;3.60;;;6.70;99.90;;;;;;4879498;29;20640;-74
2021/12/18 20:41:48;;;;;;;8.03;3.50;;;6.70;99.90;;;;;;4879425;29;20215;-74
2021/12/18 20:44:14;;;;;;;8.00;4.47;;;6.80;99.90;;;;;;4879005;29;20218;-73
2021/12/18 20:46:42;;;;;;;8.70;4.10;;;7.00;99.90;;;;;;4879795;29;20215;-73
2021/12/18 20:49:10;;;;;;;10.10;4.47;;;7.20;99.90;;;;;;4879130;29;20568;-74
2021/12/18 20:51:38;;;;;;;26.77;9.60;;;7.20;99.90;;;;;;4879579;29;20211;-74
2021/12/18 20:54:09;;;;;;;26.13;9.20;;;7.30;99.90;;;;;;4879346;29;20219;-73
2021/12/18 20:56:36;;;;;;;28.60;10.40;;;7.20;99.90;;;;;;4879187;29;20242;-74
2021/12/18 20:59:04;;;;;;;22.17;10.23;;;7.40;99.90;;;;;;4879296;29;20245;-74
2021/12/18 21:01:32;;;;;;;20.80;10.53;;;7.50;99.90;;;;;;4879247;29;20215;-75
2021/12/18 21:04:00;;;;;;;14.17;7.63;;;7.60;99.90;;;;;;4879166;29;20267;-74
2021/12/18 21:06:30;;;;;;;12.13;5.20;;;7.60;99.90;;;;;;4879393;29;20592;-73
2021/12/18 21:08:57;;;;;;;9.57;4.37;;;7.70;99.90;;;;;;4879252;29;20235;-74
2021/12/18 21:11:24;;;;;;;10.37;5.10;;;7.70;99.90;;;;;;4878930;29;20215;-74
2021/12/18 21:13:52;;;;;;;12.67;4.83;;;7.40;99.90;;;;;;4879339;29;20215;-74
2021/12/18 21:16:19;;;;;;;12.07;4.63;;;7.30;99.90;;;;;;4879265;29;20245;-74
2021/12/18 21:18:47;;;;;;;12.53;6.03;;;7.30;99.90;;;;;;4879079;29;20239;-74
2021/12/18 21:21:16;;;;;;;14.80;5.23;;;7.10;99.90;;;;;;4879174;29;20222;-74
2021/12/18 21:23:46;;;;;;;17.60;5.10;;;7.10;99.90;;;;;;4888071;29;20207;-71
2021/12/18 21:26:12;;;;;;;13.73;5.43;;;7.10;99.90;;;;;;4878862;29;20215;-72
2021/12/18 21:28:40;;;;;;;11.10;5.37;;;6.80;99.90;;;;;;4887433;29;20702;-72
2021/12/18 21:31:07;;;;;;;11.40;4.97;;;6.80;99.90;;;;;;4897387;29;20214;-72
2021/12/18 21:33:45;;;;;;;15.63;5.17;;;7.00;99.90;;;;;;4899363;29;20222;-72
2021/12/18 21:38:58;;;;;;;16.20;5.27;;;6.80;99.90;;;;;;4901054;29;20783;-72
2021/12/18 21:41:25;;;;;;;16.47;5.77;;;6.70;99.90;;;;;;4887729;29;20211;-71
2021/12/18 21:43:53;;;;;;;14.57;5.63;;;6.60;99.90;;;;;;4882191;29;20210;-72
2021/12/18 21:46:21;;;;;;;14.40;5.03;;;6.50;99.90;;;;;;4882230;29;20294;-72
2021/12/18 21:48:48;;;;;;;15.97;5.30;;;6.60;99.90;;;;;;4882977;29;20710;-72
2021/12/18 21:51:15;;;;;;;14.00;4.97;;;6.60;99.90;;;;;;4882208;29;20215;-72
2021/12/18 21:53:42;;;;;;;17.87;5.57;;;6.50;99.90;;;;;;4881961;29;20234;-73
2021/12/18 21:56:10;;;;;;;15.57;5.10;;;6.50;99.90;;;;;;4881875;29;20590;-73
2021/12/18 21:58:37;;;;;;;15.57;5.17;;;6.40;99.90;;;;;;4881687;29;20237;-72
2021/12/18 22:01:05;;;;;;;14.63;5.57;;;6.40;99.90;;;;;;4881920;29;20314;-72
2021/12/18 22:03:32;;;;;;;15.40;5.43;;;6.40;99.90;;;;;;4881895;29;20211;-72
2021/12/18 22:05:59;;;;;;;18.03;6.03;;;6.40;99.90;;;;;;4884352;29;20238;-72
2021/12/18 22:08:26;;;;;;;16.20;5.53;;;6.30;99.90;;;;;;4901099;29;20257;-72
2021/12/18 22:10:55;;;;;;;14.47;5.90;;;6.20;99.90;;;;;;4900264;29;20692;-73
2021/12/18 22:13:23;;;;;;;12.33;5.27;;;6.30;99.90;;;;;;4900526;29;20217;-72
2021/12/18 22:15:50;;;;;;;15.93;6.10;;;6.20;99.90;;;;;;4900636;29;20238;-71
2021/12/18 22:18:17;;;;;;;15.20;6.23;;;6.20;99.90;;;;;;4884198;29;20234;-73
2021/12/18 22:20:44;;;;;;;17.13;5.43;;;6.10;99.90;;;;;;4881729;29;20215;-72
2021/12/18 22:23:11;;;;;;;16.27;5.67;;;6.10;99.90;;;;;;4885258;29;20221;-72
2021/12/18 22:25:40;;;;;;;18.43;6.47;;;6.10;99.90;;;;;;4900526;29;20214;-72
2021/12/18 22:28:09;;;;;;;18.50;6.47;;;6.10;99.90;;;;;;4900070;29;20586;-72
2021/12/18 22:30:38;;;;;;;14.47;5.37;;;6.20;99.90;;;;;;4899989;29;20214;-71
2021/12/18 22:33:05;;;;;;;13.27;4.63;;;6.10;99.90;;;;;;4899930;29;20214;-72
2021/12/18 22:35:32;;;;;;;18.63;6.00;;;6.10;99.90;;;;;;4899949;29;20238;-72
2021/12/18 22:38:00;;;;;;;16.57;5.40;;;6.10;99.90;;;;;;4899808;29;20428;-72
2021/12/18 22:40:27;;;;;;;16.40;6.10;;;6.20;99.90;;;;;;4899727;29;20214;-72
2021/12/18 22:42:54;;;;;;;17.73;5.80;;;6.20;99.90;;;;;;4900067;29;20217;-72
2021/12/18 22:45:21;;;;;;;14.10;5.57;;;6.20;99.90;;;;;;4899185;29;20601;-72
2021/12/18 22:47:52;;;;;;;16.67;5.90;;;6.10;99.90;;;;;;4900086;29;20248;-72
2021/12/18 22:50:19;;;;;;;16.00;5.97;;;6.00;99.90;;;;;;4899970;29;20218;-72
2021/12/18 22:52:46;;;;;;;13.50;4.80;;;6.10;99.90;;;;;;4899506;29;20210;-72
2021/12/18 22:55:13;;;;;;;20.17;6.60;;;6.20;99.90;;;;;;4899692;29;20229;-72
2021/12/18 22:57:40;;;;;;;16.47;6.33;;;6.10;99.90;;;;;;4899202;29;20235;-73
2021/12/18 23:00:46;;;;;;;16.63;5.53;;;6.20;99.90;;;;;;4900004;29;20305;-72
2021/12/18 23:03:16;;;;;;;17.33;6.03;;;6.10;99.90;;;;;;4899588;29;20206;-72
2021/12/18 23:05:43;;;;;;;16.07;5.97;;;6.00;99.90;;;;;;4900010;29;20219;-72
2021/12/18 23:08:10;;;;;;;17.57;6.60;;;6.10;99.90;;;;;;4899461;29;20253;-72
2021/12/18 23:10:38;;;;;;;18.10;6.30;;;6.30;99.90;;;;;;4899844;29;20213;-72
2021/12/18 23:13:29;;;;;;;19.33;6.53;;;6.70;99.90;;;;;;4899780;29;20214;-72
2021/12/18 23:16:20;;;;;;;20.23;5.90;;;6.90;99.90;;;;;;4898998;29;20710;-73
2021/12/18 23:19:04;;;;;;;18.30;6.40;;;7.00;99.90;;;;;;4880201;29;20234;-72
2021/12/18 23:21:31;;;;;;;18.90;6.50;;;7.00;99.90;;;;;;4880595;29;20682;-72
2021/12/18 23:23:58;;;;;;;17.93;6.27;;;6.80;99.90;;;;;;4880758;29;20207;-72
2021/12/18 23:26:25;;;;;;;21.20;7.10;;;6.70;99.90;;;;;;4880476;29;20218;-72
2021/12/18 23:28:52;;;;;;;20.47;7.03;;;6.90;99.90;;;;;;4880433;29;20227;-72
2021/12/18 23:31:19;;;;;;;32.43;6.50;;;6.90;99.90;;;;;;4885428;29;20230;-72
2021/12/18 23:33:48;;;;;;;18.63;6.27;;;6.80;99.90;;;;;;4898580;29;20685;-72
